Main page
METAR-TAF:

METAR-TAF

Airports :

Glasgow Prestwick Airport

Glasgow-Prestwick, Scotland

latitude: 55-30N, longitude: 004-35W, elevation: 20 m

Current weather observation

The report was made 37 minutes ago, at 13:50 UTC
Wind 15 kt from the South
Temperature 13°C
Humidity 94%
Pressure 1010 hPa
Visibility 10 km or more
Scattered clouds at a height of 1000 ft
Broken clouds at a height of 2200 ft

METAR: EGPK 141350Z 19015KT 9999 SCT010 BKN022 13/12 Q1010

Time: 14:27 (14:27 UTC)

Forecast

The report was made 3 hours and 30 minutes ago, at 10:57 UTC
Forecast valid from 14 at 12 UTC to 15 at 12 UTC
Wind 15 kt from the South
Visibility 10 km or more
Scattered clouds at a height of 1200 ft
Broken clouds at a height of 2000 ft
Temporary
from 14 at 12 UTC to 15 at 12 UTC
Wind 20 kt from the South with gusts up to 30 kt
Visibility: 8000 m
Broken clouds at a height of 1200 ft
light rain

TAF: EGPK 141057Z 1412/1512 19015KT 9999 SCT012 BKN020 TEMPO 1412/1512 17020G30KT 8000 -RA BKN012

Weather observations and forecasts of more than 4000 airports (METAR and TAF reports).

The available stations are represented by yellow and red dots on the map.

Hover mouse over dot to see the name of the station.

Then click to see weather observations and forecasts.

To change the map : click on the green buttons with a black cross to zoom in, on the green button with a dash to zoom out, or on the green arrows for adjacent maps.


METAR-TAF: